Time;durP1;ratioP1;P1;durP2;ratioP2;P2;SDS_P1;SDS_P2;PMS_P1;PMS_P2;Temp;Humidity;BMP_temperature;BMP_pressure;BME280_temperature;BME280_humidity;BME280_pressure;Samples;Min_cycle;Max_cycle;Signal;HPM_P1;HPM_P2
2023/01/14 00:01:14;;;;;;;0.50;0.50;;;;;;;7.60;100.00;99857.63;5050977;28;20204;-71
2023/01/14 00:03:42;;;;;;;0.60;0.60;;;;;;;7.64;100.00;99863.56;5051521;28;20702;-71
2023/01/14 00:06:12;;;;;;;0.50;0.50;;;;;;;7.69;100.00;99861.81;5051354;28;20236;-71
2023/01/14 00:08:39;;;;;;;0.40;0.40;;;;;;;7.74;100.00;99867.69;5051104;28;20673;-71
2023/01/14 00:11:07;;;;;;;0.40;0.40;;;;;;;7.73;100.00;99859.19;5051501;28;20201;-71
2023/01/14 00:13:35;;;;;;;0.50;0.50;;;;;;;7.70;100.00;99861.78;5049090;28;20250;-71
2023/01/14 00:16:03;;;;;;;0.50;0.50;;;;;;;7.74;100.00;99865.16;5051198;28;20204;-71
2023/01/14 00:18:31;;;;;;;0.57;0.57;;;;;;;7.76;100.00;99869.38;5051488;28;20607;-71
2023/01/14 00:21:02;;;;;;;0.40;0.40;;;;;;;7.73;100.00;99853.25;5051513;28;20193;-71
2023/01/14 00:23:30;;;;;;;0.50;0.50;;;;;;;7.82;100.00;99871.84;5051487;28;20188;-72
2023/01/14 00:26:10;;;;;;;0.50;0.50;;;;;;;7.87;100.00;99864.16;5049310;28;20200;-72
2023/01/14 00:28:37;;;;;;;0.57;0.57;;;;;;;7.85;100.00;99869.25;5050586;28;20199;-72
2023/01/14 00:31:06;;;;;;;0.40;0.40;;;;;;;7.83;100.00;99857.38;5050875;28;20211;-71
2023/01/14 00:33:33;;;;;;;0.53;0.53;;;;;;;7.88;100.00;99868.41;5050925;28;20292;-71
2023/01/14 00:36:02;;;;;;;0.40;0.40;;;;;;;7.84;100.00;99851.41;5051014;28;20197;-71
2023/01/14 00:38:29;;;;;;;0.60;0.60;;;;;;;7.97;100.00;99862.31;5050529;28;20204;-71
2023/01/14 00:41:07;;;;;;;0.37;0.37;;;;;;;7.94;100.00;99863.22;5050793;28;20192;-71
2023/01/14 00:43:35;;;;;;;0.40;0.40;;;;;;;8.01;100.00;99875.03;5050960;28;20283;-71
2023/01/14 00:46:02;;;;;;;0.50;0.50;;;;;;;7.95;100.00;99854.66;5050964;28;20682;-71
2023/01/14 00:48:28;;;;;;;0.57;0.57;;;;;;;8.00;100.00;99858.03;5050604;28;20196;-71
2023/01/14 00:50:55;;;;;;;0.50;0.50;;;;;;;8.12;100.00;99878.28;5051046;28;20201;-72
2023/01/14 00:53:23;;;;;;;0.60;0.60;;;;;;;8.16;100.00;99869.75;5050933;28;20660;-71
2023/01/14 00:55:50;;;;;;;0.40;0.40;;;;;;;8.12;100.00;99859.56;5050616;28;20580;-72
2023/01/14 00:58:17;;;;;;;0.60;0.60;;;;;;;8.21;100.00;99872.22;5050318;28;20208;-71
2023/01/14 01:00:44;;;;;;;0.50;0.50;;;;;;;8.22;100.00;99862.00;5050519;28;20217;-71
2023/01/14 01:03:11;;;;;;;0.50;0.50;;;;;;;8.23;100.00;99868.81;5050478;28;20684;-71
2023/01/14 01:05:38;;;;;;;0.60;0.60;;;;;;;8.25;100.00;99859.41;5050579;28;20228;-71
2023/01/14 01:08:06;;;;;;;0.40;0.40;;;;;;;8.17;100.00;99851.00;5050470;28;20280;-71
2023/01/14 01:10:36;;;;;;;0.50;0.50;;;;;;;8.31;100.00;99859.34;5047788;28;20197;-71
2023/01/14 01:13:03;;;;;;;0.47;0.47;;;;;;;8.30;100.00;99852.53;5050318;28;20201;-71
2023/01/14 01:15:33;;;;;;;0.57;0.57;;;;;;;8.24;100.00;99847.47;5050414;28;20205;-71
2023/01/14 01:18:00;;;;;;;0.63;0.63;;;;;;;8.20;100.00;99834.78;5050314;28;20200;-71
2023/01/14 01:20:27;;;;;;;0.33;0.33;;;;;;;8.24;100.00;99842.38;5050121;28;20225;-71
2023/01/14 01:22:53;;;;;;;0.57;0.57;;;;;;;8.21;100.00;99836.47;5050247;28;20196;-71
2023/01/14 01:25:20;;;;;;;0.70;0.70;;;;;;;8.21;100.00;99836.47;5050503;28;20204;-71
2023/01/14 01:27:48;;;;;;;0.50;0.50;;;;;;;8.20;100.00;99830.53;5050333;28;20196;-71
2023/01/14 01:30:15;;;;;;;0.50;0.50;;;;;;;8.20;100.00;99824.56;5050265;28;20200;-71
2023/01/14 01:32:42;;;;;;;0.60;0.60;;;;;;;8.19;100.00;99828.00;5050050;28;20208;-71
2023/01/14 01:35:09;;;;;;;1.00;1.00;;;;;;;8.21;100.00;99832.19;5050350;28;20299;-71
2023/01/14 01:37:37;;;;;;;0.50;0.50;;;;;;;8.07;100.00;99823.91;5049562;28;20262;-71
2023/01/14 01:40:05;;;;;;;0.50;0.50;;;;;;;8.04;100.00;99816.28;5049235;28;20213;-71
2023/01/14 01:42:34;;;;;;;0.60;0.60;;;;;;;7.91;100.00;99805.41;5048763;28;20205;-71
2023/01/14 01:45:41;;;;;;;0.50;0.50;;;;;;;7.90;100.00;99811.34;5049987;28;20192;-71
2023/01/14 01:48:11;;;;;;;0.40;0.40;;;;;;;7.94;100.00;99807.06;5049446;28;20199;-71
2023/01/14 01:50:38;;;;;;;0.60;0.60;;;;;;;7.88;100.00;99807.97;5049860;28;20192;-71
2023/01/14 01:53:08;;;;;;;0.50;0.50;;;;;;;7.89;100.00;99801.16;5050203;28;20666;-71
2023/01/14 01:55:38;;;;;;;0.53;0.53;;;;;;;7.83;100.00;99799.53;5050225;28;20197;-70
2023/01/14 01:58:04;;;;;;;0.43;0.43;;;;;;;7.84;100.00;99790.16;5049777;28;20220;-72
2023/01/14 02:00:31;;;;;;;0.50;0.50;;;;;;;7.86;100.00;99793.53;5049994;28;20208;-71
2023/01/14 02:03:02;;;;;;;0.50;0.50;;;;;;;7.83;100.00;99783.38;5049583;28;20197;-71
2023/01/14 02:05:30;;;;;;;0.50;0.50;;;;;;;7.82;100.00;99768.91;5049991;28;20601;-71
2023/01/14 02:07:58;;;;;;;0.50;0.50;;;;;;;7.91;100.00;99784.13;5049417;28;20197;-71
2023/01/14 02:10:32;;;;;;;0.40;0.40;;;;;;;7.95;100.00;99788.28;5049938;28;20205;-71
2023/01/14 02:13:16;;;;;;;0.63;0.63;;;;;;;7.99;100.00;99784.84;5050062;28;20592;-71
2023/01/14 02:16:06;;;;;;;0.57;0.57;;;;;;;8.02;100.00;99783.97;5049799;28;20204;-71
2023/01/14 02:18:48;;;;;;;0.50;0.50;;;;;;;8.02;100.00;99784.81;5049640;28;20192;-71
2023/01/14 02:21:20;;;;;;;0.47;0.47;;;;;;;8.05;100.00;99779.66;5049666;28;20193;-71
2023/01/14 02:24:24;;;;;;;0.47;0.47;;;;;;;8.09;100.00;99776.19;5052596;28;20228;-71
2023/01/14 02:27:17;;;;;;;0.90;0.90;;;;;;;8.07;100.00;99779.66;5053420;28;20688;-71
2023/01/14 02:30:05;;;;;;;0.40;0.40;;;;;;;7.97;100.00;99772.97;5050397;28;20201;-72
2023/01/14 02:32:39;;;;;;;0.60;0.60;;;;;;;8.01;100.00;99772.06;5053482;28;20197;-72
2023/01/14 02:35:16;;;;;;;0.50;0.50;;;;;;;8.03;100.00;99781.41;5053462;28;20204;-71
2023/01/14 02:37:50;;;;;;;0.43;0.43;;;;;;;8.02;100.00;99774.59;5053206;28;20192;-72
2023/01/14 02:40:22;;;;;;;0.60;0.60;;;;;;;8.00;100.00;99771.22;5050776;28;20220;-72
2023/01/14 02:45:46;;;;;;;0.53;0.53;;;;;;;8.04;100.00;99785.66;5053208;28;20196;-71
2023/01/14 02:48:14;;;;;;;1.07;1.07;;;;;;;8.05;100.00;99787.31;5052652;28;20722;-71
2023/01/14 02:50:42;;;;;;;0.40;0.40;;;;;;;8.05;100.00;99784.75;5050634;28;20192;-72
2023/01/14 02:53:11;;;;;;;0.40;0.40;;;;;;;8.08;100.00;99789.00;5052690;28;20212;-71
2023/01/14 02:55:39;;;;;;;0.60;0.60;;;;;;;8.09;100.00;99791.53;5052874;28;20287;-71
2023/01/14 02:58:20;;;;;;;0.50;0.50;;;;;;;8.11;100.00;99789.78;5052706;28;20197;-71
2023/01/14 03:00:59;;;;;;;0.50;0.50;;;;;;;8.07;100.00;99783.06;5053070;28;20299;-72
2023/01/14 03:03:42;;;;;;;1.13;1.13;;;;;;;8.16;100.00;99793.13;5052747;28;20196;-71
2023/01/14 03:06:26;;;;;;;0.70;0.70;;;;;;;8.19;100.00;99797.34;5052565;28;20224;-71
2023/01/14 03:08:59;;;;;;;0.50;0.50;;;;;;;8.20;100.00;99799.88;5052112;28;20201;-71
2023/01/14 03:11:37;;;;;;;0.53;0.53;;;;;;;8.23;100.00;99793.88;5052506;28;20224;-71
2023/01/14 03:14:10;;;;;;;0.50;0.50;;;;;;;8.25;100.00;99798.09;5049954;28;20201;-72
2023/01/14 03:16:41;;;;;;;0.60;0.60;;;;;;;8.28;100.00;99792.97;5052641;28;20201;-71
2023/01/14 03:19:14;;;;;;;0.60;0.60;;;;;;;8.29;100.00;99788.72;5052291;28;20205;-72
2023/01/14 03:21:45;;;;;;;0.60;0.60;;;;;;;8.27;100.00;99796.34;5051653;28;20239;-72
2023/01/14 03:24:22;;;;;;;0.40;0.40;;;;;;;8.22;100.00;99789.63;5052906;28;20669;-71
2023/01/14 03:26:50;;;;;;;0.60;0.60;;;;;;;8.29;100.00;99799.78;5052157;28;20726;-71
2023/01/14 03:29:21;;;;;;;0.93;0.93;;;;;;;8.32;100.00;99796.34;5052340;28;20661;-71
2023/01/14 03:31:56;;;;;;;0.40;0.40;;;;;;;8.29;100.00;99797.22;5051687;28;20197;-72
2023/01/14 03:34:29;;;;;;;0.50;0.50;;;;;;;8.31;100.00;99792.94;5051648;28;20200;-71
2023/01/14 03:36:59;;;;;;;0.57;0.57;;;;;;;8.23;100.00;99781.97;5052086;28;20193;-71
2023/01/14 03:39:29;;;;;;;0.53;0.53;;;;;;;8.30;100.00;99801.44;5049277;28;20258;-71
2023/01/14 03:42:20;;;;;;;0.60;0.60;;;;;;;8.27;100.00;99788.69;5052239;28;20204;-71
2023/01/14 03:44:58;;;;;;;0.50;0.50;;;;;;;8.26;100.00;99784.47;5051907;28;20200;-71
2023/01/14 03:47:28;;;;;;;1.07;1.07;;;;;;;8.14;100.00;99764.19;5052173;28;20634;-71
2023/01/14 03:49:56;;;;;;;0.60;0.60;;;;;;;8.33;100.00;99801.44;5051995;28;20204;-71
2023/01/14 03:52:39;;;;;;;0.40;0.40;;;;;;;8.32;100.00;99794.63;5052390;28;20200;-72
2023/01/14 03:55:14;;;;;;;0.73;0.73;;;;;;;8.31;100.00;99792.94;5051709;28;20200;-72
2023/01/14 03:57:53;;;;;;;0.50;0.50;;;;;;;8.35;100.00;99799.69;5051413;28;20196;-71
2023/01/14 04:00:23;;;;;;;0.40;0.40;;;;;;;8.35;100.00;99797.13;5051758;28;20212;-71
2023/01/14 04:02:55;;;;;;;0.50;0.50;;;;;;;8.25;100.00;99781.94;5051505;28;20597;-71
2023/01/14 04:05:22;;;;;;;0.47;0.47;;;;;;;8.33;100.00;99796.31;5051138;28;20228;-71
2023/01/14 04:07:52;;;;;;;0.80;0.80;;;;;;;8.16;100.00;99782.91;5051003;28;20197;-71
2023/01/14 04:10:19;;;;;;;0.60;0.60;;;;;;;8.20;100.00;99793.94;5051659;28;20212;-71
2023/01/14 04:15:30;;;;;;;0.60;0.60;;;;;;;8.24;100.00;99796.41;5051758;28;20195;-71
2023/01/14 04:17:58;;;;;;;0.50;0.50;;;;;;;8.25;100.00;99797.25;5050827;28;20200;-71
2023/01/14 04:20:25;;;;;;;0.40;0.40;;;;;;;8.22;100.00;99793.03;5051246;28;20593;-71
2023/01/14 04:22:52;;;;;;;0.50;0.50;;;;;;;8.25;100.00;99797.25;5050872;28;20196;-71
2023/01/14 04:25:18;;;;;;;0.50;0.50;;;;;;;8.26;100.00;99807.47;5051035;28;20193;-71
2023/01/14 04:27:45;;;;;;;1.43;1.43;;;;;;;8.27;100.00;99801.47;5050932;28;20207;-72
2023/01/14 04:30:13;;;;;;;0.60;0.60;;;;;;;8.20;100.00;99799.88;5050708;28;20312;-72
2023/01/14 04:32:40;;;;;;;0.40;0.40;;;;;;;8.14;100.00;99799.94;5051420;28;20204;-71
2023/01/14 04:35:09;;;;;;;0.50;0.50;;;;;;;8.08;100.00;99794.94;5051251;28;20203;-71
2023/01/14 04:37:38;;;;;;;0.53;0.53;;;;;;;8.09;100.00;99806.84;5050642;28;20199;-71
2023/01/14 04:40:05;;;;;;;0.53;0.53;;;;;;;8.09;100.00;99811.94;5050918;28;20659;-71
2023/01/14 04:42:31;;;;;;;0.50;0.50;;;;;;;8.05;100.00;99807.75;5051124;28;20196;-72
2023/01/14 04:45:00;;;;;;;1.80;0.80;;;;;;;8.02;100.00;99807.78;5050815;28;20266;-71
2023/01/14 04:47:28;;;;;;;0.50;0.50;;;;;;;7.89;100.00;99793.50;5049812;28;20225;-72
2023/01/14 04:49:55;;;;;;;0.57;0.57;;;;;;;7.89;100.00;99813.91;5050809;28;20251;-72
2023/01/14 04:52:24;;;;;;;0.50;0.50;;;;;;;7.90;100.00;99813.06;5050457;28;20284;-71
2023/01/14 04:54:51;;;;;;;0.50;0.50;;;;;;;7.88;100.00;99812.25;5050897;28;20819;-72
2023/01/14 04:57:19;;;;;;;0.50;0.50;;;;;;;7.76;100.00;99797.91;5050259;28;20262;-71
2023/01/14 04:59:46;;;;;;;0.50;0.50;;;;;;;7.89;100.00;99819.00;5050874;28;20188;-72
2023/01/14 05:02:12;;;;;;;0.40;0.40;;;;;;;7.90;100.00;99818.16;5050548;28;20197;-71
2023/01/14 05:04:39;;;;;;;0.50;0.50;;;;;;;7.91;100.00;99822.41;5050349;28;20232;-72
2023/01/14 05:07:06;;;;;;;0.60;0.60;;;;;;;7.90;100.00;99825.81;5050299;28;20643;-72
2023/01/14 05:09:34;;;;;;;0.70;0.70;;;;;;;7.89;100.00;99819.00;5050152;28;20196;-71
2023/01/14 05:12:01;;;;;;;0.60;0.60;;;;;;;7.89;100.00;99819.88;5050640;28;20205;-71
2023/01/14 05:14:28;;;;;;;0.60;0.60;;;;;;;7.93;100.00;99820.69;5050577;28;20719;-71
2023/01/14 05:16:55;;;;;;;0.50;0.50;;;;;;;7.92;100.00;99818.97;5050677;28;20200;-71
2023/01/14 05:19:21;;;;;;;0.60;0.60;;;;;;;7.93;100.00;99826.63;5049969;28;20211;-71
2023/01/14 05:21:48;;;;;;;0.50;0.50;;;;;;;7.94;100.00;99814.72;5050496;28;20676;-70
2023/01/14 05:24:15;;;;;;;0.60;0.60;;;;;;;7.96;100.00;99819.78;5050553;28;20676;-70
2023/01/14 05:26:44;;;;;;;0.57;0.57;;;;;;;8.01;100.00;99825.69;5050125;28;20238;-70
2023/01/14 05:29:11;;;;;;;1.53;1.53;;;;;;;8.00;100.00;99822.28;5049888;28;20208;-70
2023/01/14 05:31:37;;;;;;;0.60;0.60;;;;;;;7.99;100.00;99820.59;5050423;28;20678;-69
2023/01/14 05:34:04;;;;;;;0.53;0.53;;;;;;;7.96;100.00;99823.19;5050345;28;20204;-70
2023/01/14 05:36:31;;;;;;;0.40;0.40;;;;;;;7.99;100.00;99829.94;5049988;28;20200;-69
2023/01/14 05:38:58;;;;;;;0.40;0.40;;;;;;;8.00;100.00;99824.00;5049822;28;20272;-70
2023/01/14 05:41:25;;;;;;;0.50;0.50;;;;;;;7.98;100.00;99821.44;5050071;28;20224;-71
2023/01/14 05:46:37;;;;;;;0.50;0.50;;;;;;;7.98;100.00;99813.78;5050199;28;20321;-69
2023/01/14 05:49:04;;;;;;;0.50;0.50;;;;;;;7.95;100.00;99813.00;5050033;28;20266;-70
2023/01/14 05:51:31;;;;;;;0.40;0.40;;;;;;;7.94;100.00;99812.16;5050039;28;20201;-69
2023/01/14 05:53:58;;;;;;;0.60;0.60;;;;;;;7.81;100.00;99793.59;5050559;28;20200;-70
2023/01/14 05:56:24;;;;;;;0.53;0.53;;;;;;;7.86;100.00;99808.84;5050142;28;20201;-70
2023/01/14 05:58:54;;;;;;;0.40;0.40;;;;;;;7.78;100.00;99820.88;5052776;28;20220;-70
2023/01/14 06:06:51;;;;;;;0.40;0.40;;;;;;;7.74;100.00;99809.00;5053776;28;20207;-69
2023/01/14 06:09:19;;;;;;;0.50;0.50;;;;;;;7.72;100.00;99808.19;5053810;28;20585;-70
2023/01/14 06:11:48;;;;;;;0.80;0.80;;;;;;;7.75;100.00;99805.59;5053785;28;20227;-69
2023/01/14 06:14:16;;;;;;;0.43;0.43;;;;;;;7.79;100.00;99807.22;5053122;28;21498;-71
2023/01/14 06:16:43;;;;;;;0.70;0.70;;;;;;;7.80;100.00;99806.38;5053829;28;20269;-69
2023/01/14 06:19:11;;;;;;;0.50;0.50;;;;;;;7.84;100.00;99806.34;5053555;28;20196;-70
2023/01/14 06:21:40;;;;;;;0.60;0.60;;;;;;;7.89;100.00;99808.81;5053685;28;20262;-70
2023/01/14 06:24:07;;;;;;;0.40;0.40;;;;;;;7.89;100.00;99811.34;5053277;28;20205;-69
2023/01/14 06:26:36;;;;;;;0.50;0.50;;;;;;;7.70;100.00;99786.94;5050534;28;20672;-71
2023/01/14 06:29:06;;;;;;;0.57;0.57;;;;;;;7.91;100.00;99812.19;5049911;28;20193;-71
2023/01/14 06:31:35;;;;;;;0.40;0.40;;;;;;;7.91;100.00;99817.31;5051646;28;20205;-71
2023/01/14 06:34:02;;;;;;;1.07;1.07;;;;;;;7.92;100.00;99816.41;5049223;28;20310;-71
2023/01/14 06:36:29;;;;;;;0.60;0.60;;;;;;;7.92;100.00;99813.88;5050427;28;20728;-71
2023/01/14 06:38:56;;;;;;;0.50;0.50;;;;;;;7.92;100.00;99812.16;5052604;28;20208;-71
2023/01/14 06:41:23;;;;;;;0.53;0.53;;;;;;;7.89;100.00;99813.91;5052969;28;20221;-71
2023/01/14 06:43:50;;;;;;;0.60;0.60;;;;;;;7.85;100.00;99817.38;5052945;28;20657;-71
2023/01/14 06:46:17;;;;;;;0.50;0.50;;;;;;;7.83;100.00;99811.44;5052935;28;20201;-71
2023/01/14 06:48:46;;;;;;;0.50;0.50;;;;;;;7.79;100.00;99817.44;5053371;28;20192;-71
2023/01/14 06:51:15;;;;;;;0.50;0.50;;;;;;;7.78;100.00;99814.06;5052908;28;20254;-71
2023/01/14 06:53:43;;;;;;;0.60;0.60;;;;;;;7.78;100.00;99816.63;5052994;28;20246;-71
2023/01/14 06:56:12;;;;;;;0.50;0.50;;;;;;;7.76;100.00;99822.59;5052576;28;20197;-71
2023/01/14 06:58:39;;;;;;;0.70;0.70;;;;;;;7.75;100.00;99815.81;5052666;28;20200;-71
2023/01/14 07:01:06;;;;;;;0.53;0.53;;;;;;;7.66;100.00;99805.69;5053068;28;20648;-70
2023/01/14 07:03:33;;;;;;;0.43;0.43;;;;;;;7.70;100.00;99817.56;5052912;28;20204;-71
2023/01/14 07:06:02;;;;;;;0.40;0.40;;;;;;;7.71;100.00;99819.25;5052676;28;20224;-71
2023/01/14 07:08:29;;;;;;;0.50;0.50;;;;;;;7.74;100.00;99821.75;5052170;28;20330;-71
2023/01/14 07:10:56;;;;;;;0.40;0.40;;;;;;;7.60;100.00;99805.75;5051970;28;20193;-71
2023/01/14 07:13:23;;;;;;;0.50;0.50;;;;;;;7.72;100.00;99823.50;5052395;28;20199;-71
2023/01/14 07:15:51;;;;;;;0.50;0.50;;;;;;;7.74;100.00;99826.88;5051981;28;20731;-71
2023/01/14 07:18:19;;;;;;;0.77;0.77;;;;;;;7.75;100.00;99815.81;5052453;28;20197;-71
2023/01/14 07:20:45;;;;;;;0.50;0.50;;;;;;;7.72;100.00;99803.91;5052396;28;20224;-71
2023/01/14 07:23:14;;;;;;;0.80;0.80;;;;;;;7.86;100.00;99824.16;5051910;28;20250;-72
2023/01/14 07:25:40;;;;;;;2.57;1.07;;;;;;;7.91;100.00;99822.41;5051510;28;20250;-71
2023/01/14 07:28:07;;;;;;;0.50;0.50;;;;;;;7.97;100.00;99816.38;5049795;28;20208;-71
2023/01/14 07:30:34;;;;;;;0.47;0.47;;;;;;;8.00;100.00;99826.53;5051992;28;20283;-71
2023/01/14 07:33:01;;;;;;;0.43;0.43;;;;;;;8.03;100.00;99822.25;5050389;28;20262;-71
2023/01/14 07:35:29;;;;;;;0.50;0.50;;;;;;;8.05;100.00;99822.22;5050743;28;20209;-71
2023/01/14 07:37:56;;;;;;;0.50;0.50;;;;;;;7.98;100.00;99807.88;5051626;28;20655;-71
2023/01/14 07:40:25;;;;;;;0.50;0.50;;;;;;;8.13;100.00;99823.81;5051062;28;20284;-71
2023/01/14 07:42:57;;;;;;;0.50;0.50;;;;;;;8.13;100.00;99828.91;5050700;28;20688;-71
2023/01/14 07:45:24;;;;;;;0.50;0.50;;;;;;;8.14;100.00;99830.59;5048574;28;20624;-71
2023/01/14 07:47:50;;;;;;;0.77;0.77;;;;;;;8.15;100.00;99832.28;5050815;28;20241;-72
2023/01/14 07:50:18;;;;;;;0.50;0.50;;;;;;;8.18;100.00;99832.25;5050386;28;20205;-73
2023/01/14 07:52:51;;;;;;;0.50;0.50;;;;;;;8.23;100.00;99834.75;5051710;28;20201;-72
2023/01/14 07:55:18;;;;;;;0.50;0.50;;;;;;;8.23;100.00;99829.63;5051421;28;20201;-72
2023/01/14 07:57:46;;;;;;;0.47;0.47;;;;;;;8.26;100.00;99830.44;5051374;28;20204;-73
2023/01/14 08:00:15;;;;;;;2.47;2.33;;;;;;;8.29;100.00;99833.00;5050549;28;20201;-70
2023/01/14 08:02:41;;;;;;;0.50;0.50;;;;;;;8.37;100.00;99826.03;5050633;28;20278;-70
2023/01/14 08:05:08;;;;;;;0.50;0.50;;;;;;;8.43;100.00;99828.50;5050708;28;20282;-70
2023/01/14 08:07:35;;;;;;;0.60;0.60;;;;;;;8.46;100.00;99831.91;5050871;28;20200;-67
2023/01/14 08:10:02;;;;;;;0.50;0.50;;;;;;;8.45;100.00;99831.06;5050273;28;20212;-68
2023/01/14 08:12:32;;;;;;;0.50;0.50;;;;;;;8.43;100.00;99828.50;5046018;28;20196;-69
2023/01/14 08:15:00;;;;;;;0.50;0.50;;;;;;;8.49;100.00;99825.03;5049138;28;20200;-69
2023/01/14 08:17:27;;;;;;;0.50;0.50;;;;;;;8.43;100.00;99832.78;5047850;28;20204;-69
2023/01/14 08:19:53;;;;;;;0.50;0.50;;;;;;;8.46;100.00;99830.19;5048520;28;20193;-69
2023/01/14 08:22:20;;;;;;;0.60;0.60;;;;;;;8.47;100.00;99823.34;5048638;28;20216;-69
2023/01/14 08:24:47;;;;;;;0.77;0.77;;;;;;;8.47;100.00;99838.69;5049893;28;20201;-69
2023/01/14 08:27:14;;;;;;;0.40;0.40;;;;;;;8.32;100.00;99839.75;5047793;28;20205;-70
2023/01/14 08:29:41;;;;;;;1.33;1.23;;;;;;;8.26;100.00;99827.88;5048098;28;20200;-69
2023/01/14 08:32:09;;;;;;;0.40;0.40;;;;;;;8.28;100.00;99841.50;5047752;28;20767;-70
2023/01/14 08:34:35;;;;;;;0.60;0.60;;;;;;;8.24;100.00;99847.47;5049523;28;20200;-69
2023/01/14 08:37:02;;;;;;;0.60;0.60;;;;;;;8.26;100.00;99835.56;5049520;28;20278;-70
2023/01/14 08:39:29;;;;;;;0.40;0.40;;;;;;;8.32;100.00;99848.28;5049371;28;20213;-69
2023/01/14 08:41:57;;;;;;;0.70;0.70;;;;;;;8.19;100.00;99846.72;5049218;28;20216;-69
2023/01/14 08:44:24;;;;;;;0.50;0.50;;;;;;;8.23;100.00;99850.91;5048604;28;20216;-70
2023/01/14 08:46:51;;;;;;;0.50;0.50;;;;;;;8.18;100.00;99846.72;5049871;28;20208;-68
2023/01/14 08:49:19;;;;;;;0.53;0.53;;;;;;;8.21;100.00;99847.53;5050418;28;20196;-69
2023/01/14 08:51:46;;;;;;;1.10;1.10;;;;;;;8.27;100.00;99857.66;5050052;28;20711;-69
2023/01/14 08:54:13;;;;;;;0.50;0.50;;;;;;;8.31;100.00;99854.22;5050496;28;20207;-69
2023/01/14 08:56:40;;;;;;;0.67;0.67;;;;;;;8.35;100.00;99860.16;5046856;28;20205;-69
2023/01/14 08:59:07;;;;;;;0.90;0.90;;;;;;;8.37;100.00;99853.28;5048464;28;20653;-69
2023/01/14 09:01:33;;;;;;;1.50;1.40;;;;;;;8.37;100.00;99854.16;5049397;28;20225;-69
2023/01/14 09:04:01;;;;;;;1.00;1.00;;;;;;;8.35;100.00;99855.88;5049598;28;20189;-69
2023/01/14 09:06:29;;;;;;;1.02;0.88;;;;;;;8.40;100.00;99851.53;5049253;28;20467;-67
2023/01/14 09:17:15;;;;;;;0.60;0.60;;;;;;;8.64;100.00;99836.72;5050371;28;20254;-67
2023/01/14 09:19:46;;;;;;;0.50;0.50;;;;;;;8.63;100.00;99830.75;5049417;28;20262;-67
2023/01/14 09:22:17;;;;;;;1.00;1.00;;;;;;;8.65;100.00;99834.16;5050088;28;20213;-67
2023/01/14 09:24:44;;;;;;;0.60;0.60;;;;;;;8.53;100.00;99838.63;5050650;28;20202;-67
2023/01/14 09:27:11;;;;;;;0.40;0.40;;;;;;;8.52;100.00;99829.25;5050392;28;20193;-67
2023/01/14 09:29:38;;;;;;;0.50;0.50;;;;;;;8.46;100.00;99839.56;5050628;28;20203;-67
2023/01/14 09:32:08;;;;;;;0.77;0.77;;;;;;;8.48;100.00;99835.25;5052062;28;20668;-67
2023/01/14 09:34:35;;;;;;;0.63;0.63;;;;;;;8.53;100.00;99823.28;5057470;28;20207;-67
2023/01/14 09:37:02;;;;;;;0.50;0.50;;;;;;;8.57;100.00;99830.00;5057651;28;20203;-67
2023/01/14 09:39:30;;;;;;;0.43;0.43;;;;;;;8.58;100.00;99818.94;5057249;28;20197;-67
2023/01/14 09:41:59;;;;;;;0.70;0.70;;;;;;;8.63;100.00;99822.25;5057257;28;20216;-67
2023/01/14 09:44:27;;;;;;;0.73;0.73;;;;;;;8.62;100.00;99818.88;5057146;28;20193;-67
2023/01/14 09:46:54;;;;;;;0.50;0.50;;;;;;;8.57;100.00;99819.78;5057337;28;20200;-67
2023/01/14 09:49:23;;;;;;;0.60;0.60;;;;;;;8.56;100.00;99826.63;5057611;28;20211;-67
2023/01/14 09:52:07;;;;;;;1.00;0.90;;;;;;;8.58;100.00;99816.38;5057031;28;20199;-67
2023/01/14 09:54:44;;;;;;;0.53;0.53;;;;;;;8.55;100.00;99821.53;5057170;28;20196;-67
2023/01/14 09:57:20;;;;;;;2.40;2.30;;;;;;;8.46;100.00;99819.13;5057461;28;20603;-67
2023/01/14 09:59:56;;;;;;;0.43;0.43;;;;;;;8.33;100.00;99821.88;5057202;28;20211;-67
2023/01/14 10:02:28;;;;;;;0.40;0.40;;;;;;;8.32;100.00;99815.06;5054579;28;20216;-67
2023/01/14 10:05:06;;;;;;;0.67;0.67;;;;;;;8.36;100.00;99811.59;5053461;28;20290;-67
2023/01/14 10:07:35;;;;;;;0.60;0.60;;;;;;;8.38;100.00;99814.97;5057181;28;20254;-67
2023/01/14 10:10:05;;;;;;;0.70;0.70;;;;;;;8.42;100.00;99813.22;5057066;28;20228;-67
2023/01/14 10:12:36;;;;;;;0.50;0.50;;;;;;;8.33;100.00;99793.78;5057216;28;20216;-67
2023/01/14 10:15:16;;;;;;;0.50;0.50;;;;;;;8.54;100.00;99804.50;5057348;28;20197;-67
2023/01/14 10:17:47;;;;;;;0.40;0.40;;;;;;;8.54;100.00;99809.63;5057045;28;20196;-67
2023/01/14 10:20:19;;;;;;;0.40;0.40;;;;;;;8.56;100.00;99803.63;5056977;28;20201;-67
2023/01/14 10:22:51;;;;;;;0.40;0.40;;;;;;;8.57;100.00;99804.47;5057146;28;20693;-67
2023/01/14 10:25:22;;;;;;;0.53;0.53;;;;;;;8.53;100.00;99797.72;5056940;28;20227;-67
2023/01/14 10:27:52;;;;;;;0.50;0.50;;;;;;;8.59;100.00;99798.47;5056622;28;20196;-67
2023/01/14 10:30:21;;;;;;;0.40;0.40;;;;;;;8.56;100.00;99792.56;5056861;28;20196;-67
2023/01/14 10:32:50;;;;;;;2.97;1.13;;;;;;;8.41;100.00;99794.47;5056706;28;20258;-67
2023/01/14 10:35:22;;;;;;;0.57;0.57;;;;;;;8.38;100.00;99789.41;5057133;28;20193;-67
2023/01/14 10:37:49;;;;;;;0.70;0.70;;;;;;;8.50;100.00;99787.56;5056885;28;20196;-67
2023/01/14 10:40:23;;;;;;;0.60;0.60;;;;;;;8.48;100.00;99791.84;5057174;28;20224;-67
2023/01/14 10:42:50;;;;;;;0.60;0.60;;;;;;;8.44;100.00;99786.78;5056920;28;20216;-67
2023/01/14 10:45:17;;;;;;;0.80;0.80;;;;;;;8.53;100.00;99779.84;5053847;28;20673;-67
2023/01/14 10:47:45;;;;;;;0.60;0.60;;;;;;;8.56;100.00;99777.25;5053619;28;20200;-67
2023/01/14 10:50:22;;;;;;;2.50;2.40;;;;;;;8.48;100.00;99767.13;5054044;28;20731;-67
2023/01/14 10:52:50;;;;;;;0.70;0.70;;;;;;;8.64;100.00;99770.28;5053493;28;20208;-67
2023/01/14 10:55:19;;;;;;;0.80;0.80;;;;;;;8.65;100.00;99766.88;5053788;28;20677;-67
2023/01/14 10:57:50;;;;;;;1.33;1.33;;;;;;;8.61;100.00;99771.19;5053825;28;20196;-67
2023/01/14 11:00:36;;;;;;;0.60;0.60;;;;;;;8.67;100.00;99760.00;5053513;28;20207;-67
2023/01/14 11:03:05;;;;;;;1.73;1.73;;;;;;;8.82;100.00;99770.00;5052641;28;20293;-67
2023/01/14 11:05:34;;;;;;;0.90;0.90;;;;;;;8.87;100.00;99768.19;5052943;28;20235;-67
2023/01/14 11:08:15;;;;;;;0.60;0.60;;;;;;;8.94;100.00;99765.50;5053267;28;20220;-67
2023/01/14 11:10:43;;;;;;;0.50;0.50;;;;;;;9.00;100.00;99766.25;5053048;28;20197;-67
2023/01/14 11:13:25;;;;;;;0.70;0.70;;;;;;;9.07;100.00;99768.69;5053012;28;20200;-67
2023/01/14 11:15:53;;;;;;;1.57;1.57;;;;;;;9.12;100.00;99764.31;5052947;28;20201;-67
2023/01/14 11:18:25;;;;;;;1.00;1.00;;;;;;;9.15;100.00;99774.47;5052959;28;20204;-67
2023/01/14 11:20:54;;;;;;;2.67;0.97;;;;;;;9.21;100.00;99771.81;5053038;28;20665;-67
2023/01/14 11:23:28;;;;;;;0.40;0.40;;;;;;;9.22;100.00;99765.81;5052795;28;20227;-66
2023/01/14 11:25:55;;;;;;;0.40;0.40;;;;;;;9.25;100.00;99767.47;5051234;28;20201;-65
2023/01/14 11:28:24;;;;;;;0.80;0.80;;;;;;;9.28;100.00;99768.25;5052656;28;20706;-66
2023/01/14 11:30:54;;;;;;;0.50;0.50;;;;;;;9.31;100.00;99763.09;5052218;28;20208;-66
2023/01/14 11:33:23;;;;;;;0.53;0.53;;;;;;;9.35;100.00;99758.75;5052493;28;20793;-66
2023/01/14 11:35:52;;;;;;;0.40;0.40;;;;;;;9.33;100.00;99769.03;5052705;28;20299;-66
2023/01/14 11:38:21;;;;;;;1.33;1.33;;;;;;;9.38;100.00;99762.09;5052534;28;20694;-66
2023/01/14 11:43:52;;;;;;;0.63;0.63;;;;;;;9.41;100.00;99772.28;5052348;28;20699;-66
2023/01/14 11:46:19;;;;;;;0.43;0.43;;;;;;;9.37;100.00;99768.09;5051987;28;20224;-66
2023/01/14 11:48:59;;;;;;;1.00;1.00;;;;;;;9.35;100.00;99766.44;5052576;28;20200;-67
2023/01/14 11:51:27;;;;;;;0.50;0.50;;;;;;;9.35;100.00;99762.16;5051986;28;20200;-67
2023/01/14 11:53:56;;;;;;;0.60;0.60;;;;;;;9.39;100.00;99768.06;5052224;28;20196;-66
2023/01/14 11:56:31;;;;;;;0.90;0.90;;;;;;;9.32;100.00;99759.66;5049594;28;20525;-68
2023/01/14 11:59:01;;;;;;;0.53;0.53;;;;;;;9.45;100.00;99763.66;5051824;28;20655;-68
2023/01/14 12:01:33;;;;;;;0.70;0.70;;;;;;;9.48;100.00;99752.53;5049520;28;20204;-68
2023/01/14 12:04:04;;;;;;;1.00;1.00;;;;;;;9.50;100.00;99751.63;5050912;28;20256;-68
2023/01/14 12:06:40;;;;;;;0.70;0.70;;;;;;;9.60;100.00;99761.66;5049878;28;20704;-68
2023/01/14 12:09:14;;;;;;;0.50;0.50;;;;;;;9.63;100.00;99753.94;5046651;28;20540;-68
2023/01/14 12:11:49;;;;;;;0.70;0.70;;;;;;;9.70;100.00;99760.59;5046357;28;20291;-68